Akane — H3UD — position and weather

sailwx.info

Track history (hours):
 
Tides and Currents Weather Stations Pressure Air Temp Water Temp Dewpoint Dewpoint Depression Visibility Wind Speed Wind Dir Waves Ship Positions

Akane

Last reported at 2016-Jun-26 22:10 UTC. Time now 2016-Jul-01 08:10 UTC.
Position N 36°51' E 125°56'.

Length 180 m; draft 8 m.

Type: Tanker. MMSI: 353172000.

Date/timePositionNaut miles runAvg speedWind from/ knotsBaromVisibWave heightAir tempDewpointWater temp
2016-Jun-26 22:10N 36°51' E 125°56'0 0.0
2016-Jun-26 17:22N 36°51' E 125°56'  
2016-Jun-23 23:14N 28°28' E 124°02'29914.5
2016-Jun-23 02:33N 25°01' E 120°01'1714.9
2016-Jun-23 01:25N 24°50' E 119°47'1415.3
2016-Jun-23 00:32N 24°41' E 119°36'1614.9
2016-Jun-22 23:28N 24°31' E 119°23'1514.8
2016-Jun-22 22:29N 24°21' E 119°11'1314.3
2016-Jun-22 21:33N 24°12' E 118°60'1614.0
2016-Jun-22 20:25N 24°01' E 118°47'1313.5
2016-Jun-22 19:26N 23°53' E 118°36'1213.4
2016-Jun-22 18:33N 23°45' E 118°26'1514.1
2016-Jun-22 17:30N 23°35' E 118°14'1414.4
2016-Jun-22 16:30N 23°26' E 118°01'1715.0
2016-Jun-22 15:20N 23°17' E 117°45'5714.9
2016-Jun-22 11:31N 22°50' E 116°51'13813.8
2016-Jun-22 01:30N 22°06' E 114°29'1413.9
2016-Jun-22 00:32N 22°07' E 114°14'1210.9
2016-Jun-21 23:24N 22°17' E 114°06'5 0.1
2016-Jun-20 08:14N 22°21' E 114°02'6 8.3
2016-Jun-20 07:33N 22°17' E 114°06'14 7.0
2016-Jun-20 05:33N 22°08' E 114°18'10 8.5
2016-Jun-20 04:26N 22°08' E 114°28'24712.2
2016-Jun-19 08:15N 23°51' E 118°32'2413.5
2016-Jun-19 06:29N 24°06' E 118°52'1414.2
2016-Jun-19 05:29N 24°15' E 119°04'5614.1
2016-Jun-19 01:30N 24°53' E 119°50'  
Track history (hours):
 
Tides and Currents Weather Stations Pressure Air Temp Water Temp Dewpoint Dewpoint Depression Visibility Wind Speed Wind Dir Waves Ship Positions

Akane

Last reported at 2016-Jun-26 22:10 UTC. Time now 2016-Jul-01 08:10 UTC.
Position N 36°51' E 125°56'.

Length 180 m; draft 8 m.

Type: Tanker. MMSI: 353172000.

Date/timePositionNaut miles runAvg speedWind from/ knotsBaromVisibWave heightAir tempDewpointWater temp
2016-Jun-26 22:10N 36°51' E 125°56'0 0.0
2016-Jun-26 17:22N 36°51' E 125°56'  
2016-Jun-23 23:14N 28°28' E 124°02'29914.5
2016-Jun-23 02:33N 25°01' E 120°01'1714.9
2016-Jun-23 01:25N 24°50' E 119°47'1415.3
2016-Jun-23 00:32N 24°41' E 119°36'1614.9
2016-Jun-22 23:28N 24°31' E 119°23'1514.8
2016-Jun-22 22:29N 24°21' E 119°11'1314.3
2016-Jun-22 21:33N 24°12' E 118°60'1614.0
2016-Jun-22 20:25N 24°01' E 118°47'1313.5
2016-Jun-22 19:26N 23°53' E 118°36'1213.4
2016-Jun-22 18:33N 23°45' E 118°26'1514.1
2016-Jun-22 17:30N 23°35' E 118°14'1414.4
2016-Jun-22 16:30N 23°26' E 118°01'1715.0
2016-Jun-22 15:20N 23°17' E 117°45'5714.9
2016-Jun-22 11:31N 22°50' E 116°51'13813.8
2016-Jun-22 01:30N 22°06' E 114°29'1413.9
2016-Jun-22 00:32N 22°07' E 114°14'1210.9
2016-Jun-21 23:24N 22°17' E 114°06'5 0.1
2016-Jun-20 08:14N 22°21' E 114°02'6 8.3
2016-Jun-20 07:33N 22°17' E 114°06'14 7.0
2016-Jun-20 05:33N 22°08' E 114°18'10 8.5
2016-Jun-20 04:26N 22°08' E 114°28'24712.2
2016-Jun-19 08:15N 23°51' E 118°32'2413.5
2016-Jun-19 06:29N 24°06' E 118°52'1414.2
2016-Jun-19 05:29N 24°15' E 119°04'5614.1
2016-Jun-19 01:30N 24°53' E 119°50'  

Dump ship's entire track history